Time;durP1;ratioP1;P1;durP2;ratioP2;P2;SDS_P1;SDS_P2;PMS_P1;PMS_P2;Temp;Humidity;BMP_temperature;BMP_pressure;BME280_temperature;BME280_humidity;BME280_pressure;Samples;Min_cycle;Max_cycle;Signal;HPM_P1;HPM_P2
2021/12/20 02:50:09;;;;;;;0.57;0.30;;;;;;;4.05;43.52;94268.94;5815363;23;20048;-84
2021/12/20 02:52:34;;;;;;;2.72;0.47;;;;;;;3.90;42.86;94274.63;4922265;29;20442;-84
2021/12/20 02:54:59;;;;;;;0.30;0.25;;;;;;;3.95;43.69;94277.31;4922604;29;20159;-84
2021/12/20 02:57:25;;;;;;;0.43;0.30;;;;;;;4.13;42.06;94267.81;4922355;29;20044;-84
2021/12/20 02:59:50;;;;;;;0.52;0.30;;;;;;;4.51;40.86;94259.47;4903121;29;20072;-84
2021/12/20 03:02:16;;;;;;;1.80;1.02;;;;;;;4.33;42.39;94260.44;4902643;29;20044;-84
2021/12/20 03:04:42;;;;;;;0.63;0.30;;;;;;;4.17;42.44;94259.34;4889660;29;20036;-84
2021/12/20 03:07:11;;;;;;;0.50;0.20;;;;;;;3.98;42.45;94260.53;4908452;29;20330;-84
2021/12/20 03:09:42;;;;;;;0.20;0.20;;;;;;;3.80;43.41;94247.47;4905743;29;20468;-84
2021/12/20 03:12:09;;;;;;;0.30;0.20;;;;;;;3.59;43.70;94238.47;4889720;29;20066;-84
2021/12/20 03:14:41;;;;;;;0.40;0.25;;;;;;;3.70;42.95;94244.66;4905520;29;20044;-84
2021/12/20 03:17:07;;;;;;;3.83;0.45;;;;;;;3.97;41.68;94244.16;4890538;29;20036;-85
2021/12/20 03:19:33;;;;;;;1.65;0.50;;;;;;;4.26;41.21;94240.84;4905119;29;20451;-84
2021/12/20 03:21:59;;;;;;;0.65;0.30;;;;;;;4.42;40.47;94234.94;4904606;29;20437;-84
2021/12/20 03:24:25;;;;;;;0.43;0.30;;;;;;;4.26;41.81;94235.66;4905337;29;20036;-84
2021/12/20 03:26:50;;;;;;;0.80;0.45;;;;;;;4.12;41.24;94228.16;4888339;29;20322;-84
2021/12/20 03:29:16;;;;;;;0.73;0.40;;;;;;;4.02;41.85;94231.31;4922064;29;20036;-84
2021/12/20 03:31:41;;;;;;;0.60;0.40;;;;;;;4.07;41.23;94230.63;4904818;29;20090;-84
2021/12/20 03:34:08;;;;;;;0.50;0.35;;;;;;;4.11;41.24;94223.97;4904932;29;20027;-84
2021/12/20 03:36:33;;;;;;;0.45;0.40;;;;;;;4.07;41.21;94223.63;4905077;29;20036;-84
2021/12/20 03:38:59;;;;;;;0.50;0.38;;;;;;;3.99;41.51;94216.22;4921874;29;20167;-84
2021/12/20 03:41:24;;;;;;;2.72;0.30;;;;;;;3.91;41.38;94222.53;4904595;29;20040;-84
2021/12/20 03:43:50;;;;;;;0.35;0.30;;;;;;;3.89;41.60;94218.63;4888575;29;20032;-84
2021/12/20 03:46:16;;;;;;;0.50;0.32;;;;;;;3.84;40.98;94215.91;4889265;29;20035;-84
2021/12/20 03:48:41;;;;;;;0.28;0.20;;;;;;;3.92;40.64;94215.56;4921446;29;20027;-84
2021/12/20 03:51:07;;;;;;;0.65;0.20;;;;;;;4.01;40.50;94214.16;4904350;29;20038;-84
2021/12/20 03:53:33;;;;;;;0.30;0.30;;;;;;;4.14;40.49;94205.34;4919849;29;20446;-85
2021/12/20 03:56:00;;;;;;;0.93;0.35;;;;;;;4.21;39.59;94210.41;4921358;29;20046;-84
2021/12/20 03:58:27;;;;;;;0.70;0.30;;;;;;;4.18;39.09;94205.69;4920717;29;20039;-84
2021/12/20 04:01:01;;;;;;;1.05;0.40;;;;;;;4.40;39.10;94195.47;4904397;29;20055;-84
2021/12/20 04:03:29;;;;;;;0.35;0.30;;;;;;;4.37;38.88;94201.91;4903971;29;20024;-84
2021/12/20 04:05:54;;;;;;;0.20;0.20;;;;;;;4.49;38.45;94191.47;4889290;29;20028;-84
2021/12/20 04:08:20;;;;;;;0.38;0.30;;;;;;;4.51;39.24;94188.63;4904275;29;20032;-84
2021/12/20 04:10:46;;;;;;;0.20;0.20;;;;;;;4.32;39.19;94178.47;4912053;29;20064;-84
2021/12/20 04:13:11;;;;;;;0.32;0.20;;;;;;;4.28;39.16;94176.56;4909410;29;20076;-85
2021/12/20 04:15:37;;;;;;;0.52;0.40;;;;;;;4.05;40.59;94180.81;4889606;29;20070;-84
2021/12/20 04:18:03;;;;;;;0.45;0.30;;;;;;;3.92;40.35;94184.47;4888745;29;20082;-84
2021/12/20 04:20:29;;;;;;;0.50;0.40;;;;;;;3.77;40.18;94172.78;4904161;29;20338;-84
2021/12/20 04:22:54;;;;;;;0.43;0.30;;;;;;;4.05;39.10;94173.81;4903571;29;20028;-84
2021/12/20 04:25:20;;;;;;;0.50;0.30;;;;;;;4.35;37.80;94169.41;4919865;29;20032;-84
2021/12/20 04:27:46;;;;;;;0.55;0.40;;;;;;;4.31;38.79;94170.91;4903896;29;20060;-84
2021/12/20 04:30:12;;;;;;;0.30;0.30;;;;;;;4.23;38.77;94165.09;4921101;29;20032;-84
2021/12/20 04:32:39;;;;;;;0.70;0.40;;;;;;;4.14;39.36;94171.66;4903594;29;20028;-84
2021/12/20 04:35:06;;;;;;;0.30;0.28;;;;;;;4.17;39.55;94170.41;4903860;29;20028;-84
2021/12/20 04:37:31;;;;;;;0.52;0.20;;;;;;;4.47;37.92;94164.19;4904045;29;20181;-84
2021/12/20 04:39:58;;;;;;;0.52;0.40;;;;;;;4.67;37.56;94161.16;4903911;29;20081;-84
2021/12/20 04:42:23;;;;;;;0.40;0.13;;;;;;;4.52;37.76;94159.06;4903726;29;20032;-84
2021/12/20 04:44:49;;;;;;;0.40;0.40;;;;;;;4.64;37.39;94159.00;4904018;29;20447;-84
2021/12/20 04:47:14;;;;;;;0.60;0.40;;;;;;;4.53;38.64;94164.03;4920635;29;20441;-84
2021/12/20 04:49:39;;;;;;;0.50;0.50;;;;;;;4.75;39.43;94154.78;4919520;29;20126;-84
2021/12/20 04:52:05;;;;;;;0.45;0.40;;;;;;;4.41;38.14;94159.91;4887851;29;20047;-84
2021/12/20 04:54:30;;;;;;;0.40;0.40;;;;;;;4.56;37.82;94167.19;4903629;29;20402;-84
2021/12/20 04:56:56;;;;;;;0.55;0.40;;;;;;;4.43;37.46;94161.28;4903626;29;20028;-84
2021/12/20 04:59:23;;;;;;;0.47;0.30;;;;;;;4.26;38.95;94160.44;4920736;29;20349;-84
2021/12/20 05:01:49;;;;;;;0.68;0.40;;;;;;;4.23;38.73;94159.91;4917747;29;20067;-84
2021/12/20 05:04:14;;;;;;;0.50;0.38;;;;;;;4.17;38.55;94160.81;4903536;29;20059;-84
2021/12/20 05:06:40;;;;;;;0.90;0.40;;;;;;;4.14;39.37;94165.66;4920278;29;20051;-87
2021/12/20 05:09:06;;;;;;;1.02;0.50;;;;;;;4.02;39.40;94163.94;4904014;29;20040;-84
2021/12/20 05:11:34;;;;;;;2.60;0.40;;;;;;;3.84;39.70;94164.88;4903431;29;20059;-84
2021/12/20 05:14:00;;;;;;;0.40;0.30;;;;;;;3.85;38.71;94165.66;4900456;29;20386;-84
2021/12/20 05:16:26;;;;;;;0.22;0.22;;;;;;;3.95;38.73;94165.84;4901570;29;20123;-84
2021/12/20 05:18:52;;;;;;;0.63;0.40;;;;;;;3.86;40.49;94169.81;4884992;29;20082;-84
2021/12/20 05:21:17;;;;;;;0.63;0.40;;;;;;;3.88;40.79;94167.81;4900407;29;20032;-84
2021/12/20 05:23:42;;;;;;;0.50;0.40;;;;;;;3.82;39.73;94165.09;4884111;29;20050;-84
2021/12/20 05:26:08;;;;;;;2.17;0.60;;;;;;;4.04;39.89;94164.47;4901873;29;20095;-84
2021/12/20 05:28:33;;;;;;;1.00;0.32;;;;;;;3.95;39.33;94164.06;4901552;29;20040;-84
2021/12/20 05:30:59;;;;;;;0.47;0.43;;;;;;;3.96;40.10;94167.41;4901288;29;20083;-84
2021/12/20 05:33:26;;;;;;;2.65;0.70;;;;;;;4.08;39.54;94159.59;4901069;29;20042;-83
2021/12/20 05:35:52;;;;;;;0.60;0.40;;;;;;;4.21;39.13;94153.38;4884891;29;20354;-84
2021/12/20 05:38:17;;;;;;;0.82;0.40;;;;;;;4.40;37.06;94161.75;4901449;29;20036;-84
2021/12/20 05:40:42;;;;;;;0.68;0.38;;;;;;;4.50;36.51;94155.94;4884578;29;20131;-84
2021/12/20 05:43:08;;;;;;;1.48;0.50;;;;;;;4.48;37.56;94157.97;4883939;29;20338;-84
2021/12/20 05:45:34;;;;;;;0.47;0.40;;;;;;;4.22;38.03;94157.53;4885272;29;20036;-84
2021/12/20 05:48:02;;;;;;;0.50;0.30;;;;;;;4.02;38.87;94161.34;4903083;29;20437;-84
2021/12/20 05:50:32;;;;;;;0.73;0.43;;;;;;;3.88;39.15;94157.44;4920308;29;20464;-84
2021/12/20 05:52:58;;;;;;;0.28;0.28;;;;;;;3.76;38.21;94163.44;4903068;29;20034;-84
2021/12/20 05:55:23;;;;;;;1.00;0.47;;;;;;;3.70;38.28;94166.91;4919078;29;20123;-85
2021/12/20 05:57:49;;;;;;;1.52;0.57;;;;;;;3.58;39.60;94166.16;4919038;29;20115;-85
2021/12/20 06:00:18;;;;;;;0.43;0.40;;;;;;;3.73;38.08;94169.06;4919696;29;20138;-84
2021/12/20 06:02:46;;;;;;;1.63;0.50;;;;;;;3.79;38.03;94165.56;4918543;29;20035;-84
2021/12/20 06:05:12;;;;;;;0.93;0.60;;;;;;;3.86;37.83;94170.59;4903099;29;20036;-85
2021/12/20 06:07:40;;;;;;;1.15;0.40;;;;;;;4.09;39.31;94176.75;4922108;29;20467;-85
2021/12/20 06:10:17;;;;;;;1.35;0.47;;;;;;;3.96;38.10;94173.41;4922151;29;20060;-84
2021/12/20 06:12:43;;;;;;;1.02;0.43;;;;;;;3.93;37.80;94170.47;4906232;29;20087;-84
2021/12/20 06:15:09;;;;;;;0.65;0.40;;;;;;;4.01;37.80;94177.88;4906541;29;20046;-84
2021/12/20 06:17:35;;;;;;;0.55;0.35;;;;;;;3.95;38.05;94169.25;4906400;29;20040;-84
2021/12/20 06:20:13;;;;;;;0.77;0.40;;;;;;;3.96;38.28;94173.41;4921896;29;20024;-84
2021/12/20 06:22:38;;;;;;;0.73;0.45;;;;;;;3.99;37.67;94169.53;4906041;29;20036;-84
2021/12/20 06:25:04;;;;;;;1.27;0.32;;;;;;;4.06;38.55;94169.41;4906048;29;20131;-84
2021/12/20 06:27:30;;;;;;;0.98;0.50;;;;;;;3.91;38.85;94167.34;4922001;29;20123;-84
2021/12/20 06:29:55;;;;;;;0.50;0.30;;;;;;;3.74;39.84;94165.47;4922039;29;20397;-84
2021/12/20 06:32:21;;;;;;;0.30;0.30;;;;;;;3.93;40.93;94165.28;4922477;29;20461;-85
2021/12/20 06:34:46;;;;;;;0.30;0.20;;;;;;;3.80;42.08;94174.91;4921931;29;20039;-84
2021/12/20 06:37:12;;;;;;;9.73;0.88;;;;;;;3.77;39.91;94171.97;4921379;29;20043;-84
2021/12/20 06:39:47;;;;;;;0.70;0.40;;;;;;;3.80;40.69;94174.91;4922537;29;20373;-84
2021/12/20 06:42:12;;;;;;;0.90;0.40;;;;;;;3.60;40.75;94183.03;4922320;29;20063;-84
2021/12/20 06:44:38;;;;;;;0.65;0.40;;;;;;;3.60;40.32;94172.69;4905969;29;20508;-85
2021/12/20 06:47:03;;;;;;;0.95;0.38;;;;;;;3.40;41.01;94180.81;4905738;29;20039;-84
2021/12/20 06:49:29;;;;;;;0.40;0.28;;;;;;;3.40;41.34;94180.81;4905631;29;20068;-84
2021/12/20 06:51:58;;;;;;;0.55;0.32;;;;;;;3.42;40.53;94183.97;4905203;29;20036;-84
2021/12/20 06:54:24;;;;;;;0.80;0.30;;;;;;;3.66;40.97;94183.94;4906530;29;20361;-84
2021/12/20 06:56:49;;;;;;;0.22;0.20;;;;;;;3.98;40.16;94188.72;4922472;29;20035;-84
2021/12/20 06:59:15;;;;;;;0.75;0.38;;;;;;;4.15;39.21;94180.19;4905778;29;20048;-85
2021/12/20 07:01:41;;;;;;;0.73;0.30;;;;;;;4.22;38.66;94178.28;4905316;29;20127;-85
2021/12/20 07:04:07;;;;;;;1.13;0.30;;;;;;;4.14;39.24;94178.63;4922628;29;20094;-84
2021/12/20 07:06:32;;;;;;;1.23;0.50;;;;;;;3.99;41.54;94174.72;4905462;29;20032;-84
2021/12/20 07:08:58;;;;;;;1.70;0.65;;;;;;;3.92;41.77;94176.69;4905617;29;20043;-84
2021/12/20 07:11:24;;;;;;;1.35;0.60;;;;;;;3.86;40.65;94175.00;4905279;29;20036;-85
2021/12/20 07:13:52;;;;;;;2.00;0.65;;;;;;;3.82;41.49;94182.47;4905224;29;20032;-84
2021/12/20 07:16:17;;;;;;;0.75;0.50;;;;;;;3.72;42.62;94175.25;4922121;29;20080;-85
2021/12/20 07:18:43;;;;;;;0.65;0.40;;;;;;;3.78;41.77;94181.31;4904198;29;20059;-85
2021/12/20 07:21:08;;;;;;;1.13;0.60;;;;;;;4.08;40.03;94183.72;4889361;29;20039;-84
2021/12/20 07:23:34;;;;;;;1.38;0.70;;;;;;;4.33;42.27;94182.63;4904751;29;20407;-84
2021/12/20 07:26:01;;;;;;;1.25;0.70;;;;;;;4.17;41.68;94183.38;4905418;29;20043;-85
2021/12/20 07:28:26;;;;;;;2.47;0.80;;;;;;;4.09;41.53;94179.34;4905284;29;20144;-84
2021/12/20 07:30:52;;;;;;;1.58;0.40;;;;;;;4.39;42.27;94175.72;4922149;29;20115;-84
2021/12/20 07:33:17;;;;;;;1.52;0.60;;;;;;;4.33;40.12;94177.44;4904440;29;20055;-85
2021/12/20 07:35:44;;;;;;;1.60;0.50;;;;;;;4.38;40.38;94184.53;4922045;29;20036;-85
2021/12/20 07:38:14;;;;;;;0.50;0.40;;;;;;;4.46;41.28;94183.38;4905278;29;20032;-84
2021/12/20 07:40:44;;;;;;;5.07;0.82;;;;;;;4.76;40.23;94188.28;4904833;29;20035;-84
2021/12/20 07:43:09;;;;;;;4.65;1.10;;;;;;;5.20;40.44;94192.88;4904305;29;20032;-85
2021/12/20 07:45:35;;;;;;;1.88;0.60;;;;;;;5.02;40.66;94191.28;4904751;29;20361;-84
2021/12/20 07:48:00;;;;;;;0.88;0.50;;;;;;;5.26;38.71;94185.13;4904919;29;20114;-85
2021/12/20 07:50:26;;;;;;;0.55;0.40;;;;;;;5.22;39.13;94192.59;4921619;29;20398;-85
2021/12/20 07:52:51;;;;;;;0.80;0.50;;;;;;;5.32;39.58;94190.16;4921038;29;20087;-84
2021/12/20 07:55:17;;;;;;;2.72;0.90;;;;;;;5.57;40.36;94193.34;4921676;29;20036;-85
2021/12/20 07:57:42;;;;;;;1.30;0.70;;;;;;;5.37;41.71;94194.66;4904720;29;20040;-85
2021/12/20 08:00:10;;;;;;;1.52;0.70;;;;;;;5.20;43.00;94203.25;4921269;29;20036;-85
2021/12/20 08:02:36;;;;;;;2.20;0.82;;;;;;;5.11;43.25;94199.47;4904217;29;20035;-85
2021/12/20 08:05:01;;;;;;;1.08;0.70;;;;;;;5.16;44.13;94206.56;4904360;29;20028;-85
2021/12/20 08:07:27;;;;;;;1.45;0.70;;;;;;;5.29;41.04;94197.66;4920299;29;20039;-84
2021/12/20 08:09:52;;;;;;;2.10;0.70;;;;;;;5.54;41.13;94199.03;4904201;29;20452;-84
2021/12/20 08:12:18;;;;;;;1.42;0.65;;;;;;;5.58;40.84;94202.72;4904075;29;20036;-84
2021/12/20 08:14:44;;;;;;;1.27;0.63;;;;;;;5.91;38.27;94196.66;4904402;29;20047;-85
2021/12/20 08:17:10;;;;;;;1.30;0.60;;;;;;;6.01;38.35;94195.22;4904417;29;20067;-84
2021/12/20 08:19:35;;;;;;;2.17;0.93;;;;;;;5.98;42.25;94200.91;4904015;29;20067;-85
2021/12/20 08:22:00;;;;;;;1.60;0.90;;;;;;;5.79;47.14;94201.97;4904017;29;20032;-84
2021/12/20 08:24:26;;;;;;;2.05;0.80;;;;;;;5.62;48.43;94202.00;4904025;29;20028;-84
2021/12/20 08:26:51;;;;;;;2.22;0.70;;;;;;;5.52;46.69;94199.25;4920866;29;20039;-84
2021/12/20 08:29:17;;;;;;;3.50;0.90;;;;;;;5.51;45.95;94201.09;4903830;29;20441;-84
2021/12/20 08:31:42;;;;;;;1.83;0.60;;;;;;;5.39;45.37;94205.59;4903750;29;20039;-84
2021/12/20 08:34:08;;;;;;;1.67;0.70;;;;;;;5.47;46.64;94204.41;4903904;29;20039;-85
2021/12/20 08:36:33;;;;;;;0.95;0.70;;;;;;;5.48;48.62;94193.78;4921014;29;20437;-84
2021/12/20 08:38:59;;;;;;;1.67;0.80;;;;;;;5.86;44.34;94208.81;4904102;29;20036;-84
2021/12/20 08:41:24;;;;;;;0.90;0.55;;;;;;;5.65;44.54;94216.34;4887881;29;20039;-85
2021/12/20 08:43:50;;;;;;;0.52;0.45;;;;;;;5.64;45.77;94219.97;4919693;29;20043;-85
2021/12/20 08:46:16;;;;;;;0.93;0.60;;;;;;;5.71;44.53;94223.19;4919388;29;20036;-85
2021/12/20 08:48:45;;;;;;;2.63;0.70;;;;;;;5.76;44.76;94220.66;4903865;29;20044;-84
2021/12/20 08:51:11;;;;;;;3.42;0.82;;;;;;;5.75;44.64;94228.69;4903519;29;20028;-85
2021/12/20 08:53:37;;;;;;;1.77;0.63;;;;;;;5.62;45.67;94224.63;4903103;29;20032;-84
2021/12/20 08:56:04;;;;;;;1.88;0.70;;;;;;;5.68;45.12;94231.47;4920750;29;20032;-85
2021/12/20 08:58:30;;;;;;;1.13;0.57;;;;;;;5.75;43.90;94232.09;4919337;29;20028;-85
2021/12/20 09:00:55;;;;;;;0.80;0.50;;;;;;;5.80;43.41;94231.34;4920628;29;20092;-85
2021/12/20 09:03:22;;;;;;;1.73;0.63;;;;;;;5.95;43.18;94230.78;4919994;29;20060;-85
2021/12/20 09:05:48;;;;;;;1.02;0.52;;;;;;;6.14;46.61;94231.28;4903803;29;20453;-84
2021/12/20 09:08:16;;;;;;;1.17;0.63;;;;;;;6.14;44.33;94228.69;4903706;29;20162;-85
2021/12/20 09:10:42;;;;;;;1.58;0.73;;;;;;;6.18;43.99;94229.00;4896725;29;20031;-85
2021/12/20 09:13:07;;;;;;;1.20;0.60;;;;;;;6.33;44.20;94231.78;4903276;29;20111;-85
2021/12/20 09:15:33;;;;;;;0.95;0.40;;;;;;;6.39;46.02;94229.22;4887808;29;20107;-85
2021/12/20 09:17:59;;;;;;;1.25;0.57;;;;;;;6.50;45.03;94241.31;4903583;29;20040;-84
2021/12/20 09:20:26;;;;;;;1.20;0.68;;;;;;;6.56;45.57;94244.78;4919053;29;20028;-85
2021/12/20 09:22:53;;;;;;;1.27;0.68;;;;;;;6.63;45.17;94243.53;4918956;29;20043;-85
2021/12/20 09:25:22;;;;;;;7.32;1.08;;;;;;;6.76;45.59;94246.78;4920181;29;20416;-85
2021/12/20 09:27:48;;;;;;;1.23;0.52;;;;;;;6.84;46.56;94248.16;4903383;29;20043;-85
2021/12/20 09:30:14;;;;;;;1.60;0.75;;;;;;;7.00;43.13;94247.28;4903547;29;20036;-84
2021/12/20 09:32:40;;;;;;;2.22;0.82;;;;;;;7.16;43.51;94248.16;4903146;29;20059;-84
2021/12/20 09:35:07;;;;;;;0.85;0.63;;;;;;;7.31;45.48;94257.16;4920378;29;20071;-85
2021/12/20 09:37:33;;;;;;;0.90;0.60;;;;;;;7.35;45.76;94253.03;4903509;29;20032;-85
2021/12/20 09:40:00;;;;;;;2.92;0.70;;;;;;;7.40;46.45;94257.50;4887666;29;20048;-85
2021/12/20 09:42:25;;;;;;;3.92;1.00;;;;;;;7.49;45.89;94246.34;4922979;29;20060;-85
2021/12/20 09:44:52;;;;;;;1.73;0.77;;;;;;;7.60;43.98;94249.00;4907176;29;20086;-84
2021/12/20 09:47:17;;;;;;;1.27;0.70;;;;;;;7.55;45.75;94251.59;4907110;29;20032;-84
2021/12/20 09:49:43;;;;;;;1.42;0.73;;;;;;;7.52;46.56;94250.25;4890602;29;20039;-84
2021/12/20 09:52:09;;;;;;;4.63;0.88;;;;;;;7.46;47.14;94252.06;4887388;29;20104;-84
2021/12/20 09:54:35;;;;;;;1.90;0.80;;;;;;;7.45;46.63;94250.47;4904932;29;20099;-84
2021/12/20 09:57:02;;;;;;;1.45;0.60;;;;;;;7.35;47.55;94238.16;4872566;29;20430;-84
2021/12/20 09:59:29;;;;;;;1.85;0.85;;;;;;;7.52;49.27;94239.06;4888029;29;20028;-84
2021/12/20 10:01:57;;;;;;;4.03;0.77;;;;;;;7.55;48.28;94235.94;4871707;29;20040;-84
2021/12/20 10:04:23;;;;;;;1.17;0.90;;;;;;;7.54;48.36;94242.22;4887862;29;20032;-84
2021/12/20 10:06:54;;;;;;;1.95;1.20;;;;;;;7.71;47.39;94239.44;4904467;29;20028;-84
2021/12/20 10:09:26;;;;;;;1.95;1.02;;;;;;;7.64;48.65;94234.47;4887970;29;20040;-84
2021/12/20 10:12:10;;;;;;;2.38;1.13;;;;;;;7.64;49.13;94231.84;4888430;29;20036;-84
2021/12/20 10:14:57;;;;;;;1.77;1.17;;;;;;;7.91;49.88;94231.72;4872306;29;20068;-84
2021/12/20 10:17:26;;;;;;;2.55;0.90;;;;;;;7.91;47.98;94228.34;4904579;29;20064;-85
2021/12/20 10:19:53;;;;;;;1.65;0.80;;;;;;;8.04;48.57;94227.91;4887637;29;20028;-85
2021/12/20 10:22:30;;;;;;;1.65;0.95;;;;;;;8.08;48.53;94222.94;4871699;29;20033;-85
2021/12/20 10:24:58;;;;;;;2.42;1.00;;;;;;;8.05;49.09;94215.63;4903012;29;20033;-85
2021/12/20 10:27:29;;;;;;;2.47;1.02;;;;;;;8.23;49.41;94226.66;4887395;29;20048;-85
2021/12/20 10:29:54;;;;;;;2.50;1.15;;;;;;;8.31;49.26;94226.94;4887609;29;20535;-84
2021/12/20 10:32:40;;;;;;;2.78;1.10;;;;;;;8.29;50.19;94230.84;4871305;29;20115;-85
2021/12/20 10:35:25;;;;;;;2.50;1.40;;;;;;;8.25;53.26;94227.16;4887169;29;20040;-84
2021/12/20 10:49:42;;;;;;;3.95;2.15;;;;;;;7.98;50.65;94247.16;4939969;29;20337;-87
2021/12/20 10:52:09;;;;;;;6.72;2.65;;;;;;;8.07;53.14;94245.66;4923838;29;20027;-86
2021/12/20 10:54:42;;;;;;;7.90;3.22;;;;;;;7.92;53.15;94248.19;4924669;29;20054;-86
2021/12/20 10:57:08;;;;;;;5.68;2.60;;;;;;;7.92;53.80;94245.56;4908853;29;20122;-86
2021/12/20 10:59:35;;;;;;;4.53;2.50;;;;;;;7.86;56.17;94239.53;4908831;29;20199;-87
2021/12/20 11:04:38;;;;;;;10.23;3.90;;;;;;;8.06;57.11;94249.28;4925331;29;20095;-87
2021/12/20 11:09:43;;;;;;;9.30;4.05;;;;;;;8.13;58.96;94237.84;4925271;29;20039;-87
2021/12/20 11:12:13;;;;;;;8.07;3.90;;;;;;;8.05;59.34;94245.13;4939425;29;20445;-87
2021/12/20 11:14:49;;;;;;;9.60;4.22;;;;;;;8.24;59.23;94242.06;4908878;29;20032;-87
2021/12/20 11:17:21;;;;;;;10.82;4.85;;;;;;;8.18;58.83;94240.47;4940249;29;20031;-87
2021/12/20 11:19:57;;;;;;;11.73;5.47;;;;;;;8.13;60.13;94245.66;4908394;29;20035;-87
2021/12/20 11:22:24;;;;;;;13.57;6.30;;;;;;;8.04;61.17;94246.16;4908547;29;20066;-87
2021/12/20 11:24:55;;;;;;;14.05;7.18;;;;;;;8.13;61.98;94250.88;4908282;29;20027;-87
2021/12/20 11:27:42;;;;;;;17.30;8.40;;;;;;;8.09;63.91;94250.59;4908285;29;20031;-87
2021/12/20 11:30:08;;;;;;;17.33;8.95;;;;;;;7.91;63.15;94251.81;4924111;29;20118;-87
2021/12/20 11:32:34;;;;;;;17.65;9.07;;;;;;;7.83;65.38;94247.88;4923386;29;20451;-87
2021/12/20 11:35:00;;;;;;;16.45;8.27;;;;;;;7.88;66.90;94247.09;4916935;29;20031;-87
2021/12/20 11:40:47;;;;;;;19.00;9.18;;;;;;;8.00;66.56;94250.28;4934717;29;20043;-87
2021/12/20 11:43:15;;;;;;;16.80;7.97;;;;;;;8.07;63.49;94255.28;4939172;29;20441;-87
2021/12/20 11:45:40;;;;;;;18.08;8.23;;;;;;;8.01;64.11;94259.69;4908309;29;20130;-86
2021/12/20 11:48:08;;;;;;;15.50;7.55;;;;;;;8.03;62.81;94260.25;4940436;29;20098;-87
2021/12/20 11:50:39;;;;;;;12.70;7.03;;;;;;;8.15;64.89;94260.03;4924139;29;20024;-87
2021/12/20 11:53:07;;;;;;;18.92;8.63;;;;;;;8.27;65.03;94266.88;4923677;29;20024;-87
2021/12/20 11:55:33;;;;;;;19.30;8.85;;;;;;;8.35;67.34;94255.94;4923774;29;20031;-87
2021/12/20 11:58:01;;;;;;;17.92;8.35;;;;;;;8.18;63.81;94254.28;4923676;29;20023;-87
2021/12/20 12:00:27;;;;;;;16.75;8.95;;;;;;;8.19;65.88;94261.09;4923868;29;20039;-86
2021/12/20 12:03:19;;;;;;;17.17;8.40;;;;;;;8.27;66.83;94257.19;4923318;29;20030;-87
2021/12/20 12:05:48;;;;;;;17.60;8.70;;;;;;;8.30;67.03;94258.53;4928873;29;20449;-87
2021/12/20 12:08:27;;;;;;;14.60;8.57;;;;;;;8.37;66.28;94258.28;4923618;29;20090;-87
2021/12/20 12:11:15;;;;;;;16.73;8.73;;;;;;;8.42;65.67;94251.28;4933998;29;20024;-87
2021/12/20 12:13:44;;;;;;;16.17;7.88;;;;;;;8.59;66.82;94253.69;4927972;29;20459;-87
2021/12/20 12:16:26;;;;;;;18.48;8.20;;;;;;;8.55;66.84;94257.84;4923523;29;20088;-87
2021/12/20 12:18:52;;;;;;;20.38;10.63;;;;;;;8.59;67.95;94258.13;4904561;29;20027;-87
2021/12/20 12:21:34;;;;;;;19.70;10.68;;;;;;;8.70;68.07;94259.75;4920249;29;20119;-87
2021/12/20 12:24:00;;;;;;;22.35;10.95;;;;;;;8.56;67.49;94259.44;4921215;29;20390;-87
2021/12/20 12:26:34;;;;;;;22.75;10.77;;;;;;;8.62;71.79;94258.41;4904196;29;20028;-87
2021/12/20 12:29:00;;;;;;;26.67;12.57;;;;;;;8.77;70.58;94262.09;4919854;29;20027;-87
2021/12/20 12:31:27;;;;;;;23.60;12.77;;;;;;;8.73;73.52;94263.66;4919838;29;20055;-87
2021/12/20 12:34:10;;;;;;;32.40;14.77;;;;;;;8.90;79.99;94266.84;4888726;29;20028;-87
2021/12/20 12:36:42;;;;;;;24.65;13.85;;;;;;;9.01;78.42;94267.63;4919569;29;20024;-86
2021/12/20 12:39:21;;;;;;;27.65;15.30;;;;;;;8.75;76.24;94272.00;4919569;29;20441;-87
2021/12/20 12:41:57;;;;;;;29.33;14.70;;;;;;;8.57;74.55;94276.66;4888530;29;20028;-87
2021/12/20 12:44:27;;;;;;;30.23;14.82;;;;;;;8.48;78.75;94272.97;4904740;29;20024;-88
2021/12/20 12:46:58;;;;;;;29.38;14.25;;;;;;;8.45;73.24;94268.22;4903978;29;20027;-87
2021/12/20 12:49:29;;;;;;;32.72;15.70;;;;;;;8.53;78.88;94277.41;4903970;29;20071;-86
2021/12/20 12:51:54;;;;;;;32.10;16.73;;;;;;;8.41;78.19;94275.81;4920469;29;20031;-87
2021/12/20 12:54:32;;;;;;;33.78;16.73;;;;;;;8.26;84.10;94279.13;4920768;29;20032;-87
2021/12/20 12:57:18;;;;;;;34.38;17.52;;;;;;;7.94;88.35;94274.78;4920192;29;20032;-86
2021/12/20 12:59:57;;;;;;;38.70;19.48;;;;;;;7.93;90.52;94278.44;4890851;29;20050;-87
2021/12/20 13:02:29;;;;;;;35.42;18.50;;;;;;;7.78;92.88;94282.53;4910737;29;20083;-86
2021/12/20 13:04:57;;;;;;;37.08;19.55;;;;;;;7.61;92.91;94287.13;4919695;29;20122;-87
2021/12/20 13:07:36;;;;;;;38.47;19.50;;;;;;;7.61;96.08;94287.13;4888590;29;20118;-87
2021/12/20 13:10:11;;;;;;;35.40;19.95;;;;;;;7.50;95.27;94279.22;4903700;29;20035;-87
2021/12/20 13:15:43;;;;;;;38.88;19.75;;;;;;;7.61;98.56;94274.84;4922455;29;20504;-87
2021/12/20 13:18:10;;;;;;;39.00;20.35;;;;;;;7.56;100.00;94282.66;4926309;29;20555;-86
2021/12/20 13:20:51;;;;;;;39.58;20.10;;;;;;;7.53;100.00;94277.13;4933843;29;20032;-86
2021/12/20 13:23:20;;;;;;;37.60;19.67;;;;;;;7.52;99.38;94284.16;4933314;29;20031;-87
2021/12/20 13:25:57;;;;;;;37.70;19.95;;;;;;;7.59;100.00;94270.91;4892526;29;20035;-86
2021/12/20 13:28:26;;;;;;;38.60;19.42;;;;;;;7.75;98.70;94270.00;4907412;29;20028;-86
2021/12/20 13:31:00;;;;;;;38.28;20.17;;;;;;;7.70;94.55;94275.16;4891821;29;20162;-86
2021/12/20 13:33:29;;;;;;;33.30;18.75;;;;;;;7.55;91.00;94280.28;4922721;29;20059;-85
2021/12/20 13:35:57;;;;;;;34.03;18.88;;;;;;;7.50;95.47;94279.22;4888667;29;20040;-86
2021/12/20 13:38:26;;;;;;;35.28;19.58;;;;;;;7.55;100.00;94277.66;4904819;29;20463;-86
2021/12/20 13:40:57;;;;;;;37.63;19.83;;;;;;;7.72;100.00;94287.97;4922912;29;20036;-87
2021/12/20 13:43:31;;;;;;;37.85;20.52;;;;;;;7.67;100.00;94287.91;4922637;29;20402;-86
2021/12/20 13:46:25;;;;;;;38.83;21.27;;;;;;;7.79;100.00;94296.34;4892547;29;20426;-86
2021/12/20 13:49:03;;;;;;;43.33;19.98;;;;;;;7.87;100.00;94287.25;4923832;29;20070;-86
2021/12/20 13:51:36;;;;;;;39.15;19.80;;;;;;;8.00;100.00;94291.28;4906860;29;20028;-86
2021/12/20 13:54:17;;;;;;;35.70;20.03;;;;;;;7.66;94.80;94294.97;4891355;29;20046;-86
2021/12/20 13:56:44;;;;;;;38.83;19.73;;;;;;;7.69;96.12;94291.06;4906836;29;20409;-84
2021/12/20 13:59:09;;;;;;;33.20;18.38;;;;;;;7.89;99.72;94304.25;4891150;29;20147;-84
2021/12/20 14:01:35;;;;;;;40.03;20.80;;;;;;;7.87;96.04;94295.09;4906495;29;20036;-84
2021/12/20 14:04:01;;;;;;;44.65;22.38;;;;;;;7.64;98.65;94304.84;4906495;29;20032;-84
2021/12/20 14:06:41;;;;;;;37.92;19.13;;;;;;;7.32;100.00;94306.44;4906517;29;20039;-85
2021/12/20 14:09:20;;;;;;;46.53;23.25;;;;;;;7.10;100.00;94316.91;4917735;29;20425;-85
2021/12/20 14:11:45;;;;;;;39.13;18.90;;;;;;;7.06;100.00;94314.00;4885192;29;20075;-85
2021/12/20 14:14:11;;;;;;;35.80;19.52;;;;;;;6.95;100.00;94314.16;4906428;29;20449;-85
2021/12/20 14:16:59;;;;;;;49.75;25.05;;;;;;;6.63;100.00;94313.03;4922037;29;20039;-85
2021/12/20 14:20:19;;;;;;;36.63;19.10;;;;;;;6.55;100.00;94324.66;4922002;29;20385;-85
2021/12/20 14:23:00;;;;;;;38.97;20.48;;;;;;;6.26;100.00;94317.03;4864728;29;20041;-85
2021/12/20 14:25:37;;;;;;;43.00;20.15;;;;;;;6.08;100.00;94321.47;4913955;29;20067;-85
2021/12/20 14:28:08;;;;;;;45.47;21.23;;;;;;;5.90;100.00;94329.53;4921215;29;20038;-85
2021/12/20 14:30:36;;;;;;;43.15;21.45;;;;;;;5.76;100.00;94329.84;4921989;29;20054;-85
2021/12/20 14:33:26;;;;;;;36.47;19.75;;;;;;;5.57;100.00;94331.09;4921859;29;20036;-85
2021/12/20 14:36:04;;;;;;;38.35;19.98;;;;;;;5.47;100.00;94329.13;4894072;29;20422;-85
2021/12/20 14:38:34;;;;;;;38.30;19.08;;;;;;;5.45;100.00;94319.00;4906177;29;20528;-85
2021/12/20 14:41:21;;;;;;;42.47;21.42;;;;;;;5.59;100.00;94324.66;4922743;29;20035;-85
2021/12/20 14:43:48;;;;;;;45.75;23.55;;;;;;;5.32;100.00;94332.28;4905786;29;20036;-85
2021/12/20 14:46:27;;;;;;;59.10;23.60;;;;;;;5.31;100.00;94325.50;4921547;29;20055;-85
2021/12/20 14:48:59;;;;;;;42.33;21.60;;;;;;;5.22;100.00;94327.69;4906589;29;20460;-85
2021/12/20 14:51:26;;;;;;;38.45;19.52;;;;;;;5.12;100.00;94345.69;4906658;29;20052;-85
2021/12/20 14:54:21;;;;;;;46.42;20.75;;;;;;;4.97;100.00;94330.63;4906079;29;20119;-84
2021/12/20 14:56:55;;;;;;;42.67;21.35;;;;;;;4.66;100.00;94347.22;4890192;29;20501;-85